AirNav   Duncan Aviation - Near you to keep you flying
 
 1503 users online  

2ND5 Cloud 9 Airport
Turtle Lake, North Dakota, USA

GOING TO TURTLE LAKE?


FAA INFORMATION EFFECTIVE 03 NOVEMBER 2022

Location

FAA Identifier: 2ND5
Lat/Long: 47-38-31.1700N 100-49-16.4700W
47-38.519500N 100-49.274500W
47.6419917,-100.8212417
(estimated)
Elevation: 1904 ft. / 580 m (estimated)
From city: 9 miles NNE of TURTLE LAKE, ND
Time zone: UTC -6 (UTC -5 during Daylight Saving Time)
Zip code: 58778

Airport Operations

Airport use: Private use. Permission required prior to landing
Activation date: 12/2015
Control tower: no
ARTCC: MINNEAPOLIS CENTER
FSS: GRAND FORKS FLIGHT SERVICE STATION
Attendance: IREG
Segmented circle: no

Airport Services

Runway Information

Runway 17/35

Dimensions: 2218 x 60 ft. / 676 x 18 m
Surface: turf
RUNWAY 17  RUNWAY 35
Traffic pattern: leftleft

Airport Ownership and Management from official FAA records

Ownership: Privately-owned
Owner: ERIC C. JOHNSON
1567 13TH AVE NW
TURTLE LAKE, ND 58575
Phone 701-391-3028
Manager: ERIC C. JOHNSON
1567 13TH AVE NW
TURTLE LAKE, ND 58575
Phone 701-391-3028

Airport Operational Statistics

Aircraft based on the field: 2
Single engine airplanes: 2
    
Aircraft operations: avg 21/month
90% local general aviation
10% transient general aviation

Additional Remarks

FOR CD CTC MINNEAPOLIS ARTCC AT 651-463-5588.

Instrument Procedures

There are no published instrument procedures at 2ND5.

Some nearby airports with instrument procedures:

D05 - Garrison Municipal Airport (25 nm W)
5H4 - Harvey Municipal Airport (37 nm E)
KHZE - Mercer County Regional Airport (37 nm SW)
KMOT - Minot International Airport (41 nm NW)
KMIB - Minot Air Force Base (51 nm NW)
 
Loc | Ops | Rwys | IFR | FBO | Links
Com | Nav | Svcs | Stats | Notes

Bismarck Aero Center
AirBoss

 
Aerial photo
No photo
 
Airport distance calculator
Flying to Cloud 9 Airport? Find the distance to fly.

From to 2ND5

Sunrise and sunset
Times for 29-Nov-2022
 Local
(UTC-6)
 Zulu
(UTC)
Morning civil twilight07:3413:34
Sunrise08:0914:09
Sunset16:5422:54
Evening civil twilight17:2923:29

Current date and time
Zulu (UTC)  29-Nov-2022 19:00:19
Local (UTC-6)  29-Nov-2022 13:00:19
 
METAR
KN60 
25nm W 
291852Z AUTO 30026G38KT M08/M13 A2973 RMK AO1 PK WND 29043/1827 SLP105 T10831128
K5H4 
37nm E 
291855Z AUTO 29022G31KT 9SM -SN OVC024 M08/M09 A2969 RMK AO2
KHZE 
37nm SW 
291855Z AUTO 29024G30KT 10SM OVC027 M08/M13 A2980 RMK AO2
KMOT 
41nm NW 
291854Z 28023G31KT 8SM -SN OVC026 M07/M12 A2970 RMK AO2 PK WND 28033/1810 SLP090 P0000 T10671122
TAF
KMOT 
41nm NW 
291726Z 2918/3018 26023G33KT P6SM SCT025 OVC050 TEMPO 2918/2921 -SN OVC025 FM292100 30023G33KT P6SM OVC020 FM301000 31018G26KT P6SM BKN025 FM301200 31017KT P6SM BKN018
NOTAMs
Click for the latest NOTAMs
NOTAMs are issued by the DoD/FAA and will open in a separate window not controlled by AirNav.

 

 
 

Would you like to see your business listed on this page?

 If your business provides an interesting product or service to pilots, flight crews, aircraft, or users of the Cloud 9 Airport, you should consider listing it here.  To start the listing process, click on the button below
 
Add a business
 

Other Pages about Cloud 9 Airport

Update a link
 
Copyright © AirNav, LLC. All rights reserved. Privacy Policy  Contact